createdAt,value
2019-02-27T00:01:01.094Z,5.88
2019-02-27T00:02:36.822Z,5.95
2019-02-27T00:04:18.675Z,5.94
2019-02-27T00:05:56.027Z,5.95
2019-02-27T00:07:32.538Z,5.95
2019-02-27T00:09:15.767Z,5.97
2019-02-27T00:10:52.797Z,5.95
2019-02-27T00:12:31.664Z,5.99
2019-02-27T00:14:16.016Z,5.97
2019-02-27T00:16:01.258Z,5.92
2019-02-27T00:17:53.676Z,5.94
2019-02-27T00:19:21.382Z,5.99
2019-02-27T00:20:58.235Z,6.01
2019-02-27T00:22:35.310Z,6.02
2019-02-27T00:24:12.027Z,6.00
2019-02-27T00:25:52.146Z,5.91
2019-02-27T00:27:38.170Z,5.95
2019-02-27T00:29:18.150Z,5.93
2019-02-27T00:31:11.180Z,5.99
2019-02-27T00:32:41.828Z,5.98
2019-02-27T00:34:19.938Z,5.86
2019-02-27T00:36:03.624Z,5.84
2019-02-27T00:37:44.426Z,5.70
2019-02-27T00:39:22.101Z,5.44
2019-02-27T00:40:58.313Z,5.21
2019-02-27T00:42:35.063Z,5.03
2019-02-27T00:44:12.107Z,4.92
2019-02-27T00:45:47.824Z,4.80
2019-02-27T00:47:23.576Z,4.70
2019-02-27T00:49:03.256Z,4.79
2019-02-27T00:50:41.380Z,4.75
2019-02-27T00:52:22.389Z,4.89
2019-02-27T00:54:03.855Z,4.93
2019-02-27T00:55:42.353Z,4.92
2019-02-27T00:57:20.862Z,5.00
2019-02-27T00:58:59.939Z,5.06
2019-02-27T01:00:32.740Z,5.18
2019-02-27T01:02:08.093Z,5.19
2019-02-27T01:03:45.664Z,5.11
2019-02-27T01:05:21.171Z,5.07
2019-02-27T01:06:56.393Z,5.06
2019-02-27T01:08:34.582Z,5.06
2019-02-27T01:10:12.284Z,4.92
2019-02-27T01:11:51.523Z,4.81
2019-02-27T01:13:24.340Z,4.73
2019-02-27T01:14:59.661Z,4.65
2019-02-27T01:16:34.793Z,4.56
2019-02-27T01:18:09.996Z,4.44
2019-02-27T01:19:45.577Z,4.34
2019-02-27T01:21:20.979Z,4.36
2019-02-27T01:22:56.274Z,4.45
2019-02-27T01:24:36.963Z,4.52
2019-02-27T01:26:12.496Z,4.60
2019-02-27T01:27:47.717Z,4.49
2019-02-27T01:29:23.460Z,4.45
2019-02-27T01:30:58.779Z,4.42
2019-02-27T01:32:34.010Z,4.45
2019-02-27T01:34:13.312Z,4.49
2019-02-27T01:35:54.295Z,4.55
2019-02-27T01:37:31.665Z,4.50
2019-02-27T01:39:11.371Z,4.46
2019-02-27T01:40:49.009Z,4.51
2019-02-27T01:42:24.999Z,4.60
2019-02-27T01:44:00.328Z,4.53
2019-02-27T01:45:35.688Z,4.56
2019-02-27T01:47:11.531Z,4.41
2019-02-27T01:48:47.462Z,4.25
2019-02-27T01:50:31.317Z,4.32
2019-02-27T01:52:09.273Z,4.26
2019-02-27T01:53:44.351Z,4.11
2019-02-27T01:55:23.558Z,4.00
2019-02-27T01:59:02.220Z,4.14
2019-02-27T02:00:38.273Z,4.16
2019-02-27T02:02:14.739Z,4.13
2019-02-27T02:03:53.178Z,4.17
2019-02-27T02:05:29.395Z,4.17
2019-02-27T02:07:06.679Z,4.15
2019-02-27T02:08:47.972Z,4.08
2019-02-27T02:10:27.920Z,4.04
2019-02-27T02:12:00.532Z,3.98
2019-02-27T02:13:48.765Z,4.00
2019-02-27T02:15:39.955Z,4.11
2019-02-27T02:17:57.589Z,4.05
2019-02-27T02:20:21.317Z,3.99
2019-02-27T02:22:21.574Z,3.99
2019-02-27T02:24:46.731Z,4.01
2019-02-27T02:26:56.205Z,3.92
2019-02-27T02:29:20.355Z,3.92
2019-02-27T02:31:42.659Z,4.01
2019-02-27T02:33:39.930Z,3.95
2019-02-27T02:35:49.742Z,3.93
2019-02-27T02:37:46.792Z,3.95
2019-02-27T02:39:37.953Z,3.89
2019-02-27T02:41:50.313Z,3.87
2019-02-27T02:43:49.940Z,3.80
2019-02-27T02:46:11.167Z,3.66
2019-02-27T02:48:33.819Z,3.64
2019-02-27T02:51:04.166Z,3.63
2019-02-27T02:53:25.207Z,3.59
2019-02-27T02:55:32.266Z,3.54
2019-02-27T02:57:42.605Z,3.44
2019-02-27T02:59:59.383Z,3.49
2019-02-27T03:02:23.504Z,3.39
2019-02-27T03:04:24.225Z,3.34
2019-02-27T03:06:25.851Z,3.17
2019-02-27T03:08:28.182Z,3.04
2019-02-27T03:11:03.276Z,3.01
2019-02-27T03:13:16.791Z,2.95
2019-02-27T03:15:49.658Z,2.88
2019-02-27T03:18:07.561Z,2.94
2019-02-27T03:20:16.812Z,2.89
2019-02-27T03:22:15.496Z,2.88
2019-02-27T03:24:27.920Z,2.99
2019-02-27T03:26:19.777Z,3.22
2019-02-27T03:28:40.627Z,3.40
2019-02-27T03:30:59.228Z,3.39
2019-02-27T03:33:23.309Z,3.28
2019-02-27T03:35:29.073Z,3.25
2019-02-27T03:37:51.591Z,3.19
2019-02-27T03:40:10.613Z,3.04
2019-02-27T03:42:22.607Z,3.02
2019-02-27T03:44:28.369Z,3.00
2019-02-27T03:46:15.988Z,2.99
2019-02-27T03:48:41.193Z,2.94
2019-02-27T03:50:51.553Z,2.94
2019-02-27T03:52:46.696Z,2.88
2019-02-27T03:54:57.016Z,2.98
2019-02-27T03:57:00.818Z,2.91
2019-02-27T03:59:07.517Z,2.94
2019-02-27T04:01:18.885Z,2.91
2019-02-27T04:03:20.903Z,2.82
2019-02-27T04:05:48.455Z,2.65
2019-02-27T04:07:33.168Z,2.53
2019-02-27T04:09:10.280Z,2.43
2019-02-27T04:10:45.790Z,2.37
2019-02-27T04:12:23.104Z,2.28
2019-02-27T04:14:05.537Z,2.21
2019-02-27T04:15:41.714Z,2.21
2019-02-27T04:17:18.775Z,2.30
2019-02-27T04:18:54.360Z,2.49
2019-02-27T04:20:36.206Z,2.50
2019-02-27T04:22:17.739Z,2.62
2019-02-27T04:23:54.258Z,2.59
2019-02-27T04:25:31.545Z,2.74
2019-02-27T04:27:07.830Z,2.78
2019-02-27T04:28:46.194Z,2.95
2019-02-27T04:30:21.856Z,2.88
2019-02-27T04:31:58.321Z,2.72
2019-02-27T04:33:34.907Z,2.63
2019-02-27T04:35:31.241Z,2.55
2019-02-27T04:37:07.054Z,2.47
2019-02-27T04:38:42.057Z,2.37
2019-02-27T04:40:18.655Z,2.29
2019-02-27T04:41:54.119Z,2.18
2019-02-27T04:43:31.958Z,2.09
2019-02-27T04:45:09.835Z,2.04
2019-02-27T04:46:45.687Z,2.07
2019-02-27T04:48:30.713Z,2.03
2019-02-27T04:50:10.918Z,2.08
2019-02-27T04:51:44.014Z,2.15
2019-02-27T04:53:19.198Z,2.16
2019-02-27T04:54:54.833Z,2.14
2019-02-27T04:56:30.152Z,2.19
2019-02-27T04:58:08.626Z,2.21
2019-02-27T04:59:42.325Z,2.24
2019-02-27T05:01:20.398Z,2.35
2019-02-27T05:02:57.938Z,2.41
2019-02-27T05:04:35.177Z,2.39
2019-02-27T05:06:11.976Z,2.34
2019-02-27T05:07:46.850Z,2.28
2019-02-27T05:09:22.243Z,2.25
2019-02-27T05:10:57.671Z,2.18
2019-02-27T05:12:33.494Z,2.25
2019-02-27T05:14:08.754Z,2.25
2019-02-27T05:15:43.887Z,2.37
2019-02-27T05:17:21.182Z,2.33
2019-02-27T05:18:55.654Z,2.24
2019-02-27T05:20:31.211Z,2.24
2019-02-27T05:22:06.505Z,2.17
2019-02-27T05:23:41.619Z,2.17
2019-02-27T05:25:16.740Z,2.13
2019-02-27T05:26:51.834Z,2.23
2019-02-27T05:28:27.304Z,2.49
2019-02-27T05:30:12.311Z,2.58
2019-02-27T05:31:45.820Z,2.66
2019-02-27T05:33:21.404Z,2.81
2019-02-27T05:34:57.840Z,2.93
2019-02-27T05:36:33.106Z,3.02
2019-02-27T05:38:13.718Z,2.98
2019-02-27T05:39:51.718Z,2.99
2019-02-27T05:41:32.931Z,3.08
2019-02-27T05:43:20.128Z,3.06
2019-02-27T05:44:55.898Z,3.11
2019-02-27T05:46:31.772Z,3.20
2019-02-27T05:48:09.697Z,3.20
2019-02-27T05:49:44.670Z,3.30
2019-02-27T05:51:22.314Z,3.38
2019-02-27T05:52:56.543Z,3.52
2019-02-27T05:54:32.369Z,3.53
2019-02-27T05:56:15.583Z,3.49
2019-02-27T05:57:48.412Z,3.63
2019-02-27T05:59:24.135Z,3.58
2019-02-27T06:01:02.087Z,3.66
2019-02-27T06:02:38.877Z,3.61
2019-02-27T06:04:18.651Z,3.68
2019-02-27T06:06:00.248Z,3.57
2019-02-27T06:07:56.385Z,3.56
2019-02-27T06:09:43.834Z,3.64
2019-02-27T06:11:18.200Z,3.59
2019-02-27T06:12:53.499Z,3.59
2019-02-27T06:14:28.586Z,3.60
2019-02-27T06:16:08.332Z,3.59
2019-02-27T06:17:43.642Z,3.62
2019-02-27T06:19:19.832Z,3.56
2019-02-27T06:20:55.996Z,3.57
2019-02-27T06:22:33.031Z,3.46
2019-02-27T06:24:12.843Z,3.41
2019-02-27T06:25:48.501Z,3.33
2019-02-27T06:27:23.783Z,3.19
2019-02-27T06:29:01.473Z,3.18
2019-02-27T06:30:40.402Z,3.21
2019-02-27T06:32:18.394Z,3.14
2019-02-27T06:33:54.545Z,3.17
2019-02-27T06:35:33.453Z,3.11
2019-02-27T06:37:10.449Z,3.02
2019-02-27T06:38:45.546Z,2.96
2019-02-27T06:40:21.136Z,3.01
2019-02-27T06:41:57.593Z,3.03
2019-02-27T06:43:32.689Z,3.08
2019-02-27T06:45:10.225Z,3.10
2019-02-27T06:46:48.115Z,3.06
2019-02-27T06:48:25.544Z,3.16
2019-02-27T06:50:00.696Z,3.04
2019-02-27T06:51:36.600Z,3.05
2019-02-27T06:53:15.609Z,3.11
2019-02-27T06:54:51.906Z,3.15
2019-02-27T06:56:27.381Z,3.15
2019-02-27T06:58:04.475Z,3.28
2019-02-27T06:59:40.423Z,3.34
2019-02-27T07:01:18.471Z,3.45
2019-02-27T07:02:55.508Z,3.45
2019-02-27T07:04:32.537Z,3.45
2019-02-27T07:06:07.807Z,3.48
2019-02-27T07:07:44.544Z,3.62
2019-02-27T07:09:19.606Z,3.57
2019-02-27T07:10:57.628Z,3.75
2019-02-27T07:12:38.383Z,3.75
2019-02-27T07:14:17.868Z,3.86
2019-02-27T07:15:55.703Z,3.96
2019-02-27T07:17:32.500Z,3.93
2019-02-27T07:19:07.608Z,4.02
2019-02-27T07:20:44.278Z,4.22
2019-02-27T07:22:24.905Z,4.33
2019-02-27T07:24:01.927Z,4.26
2019-02-27T07:25:41.945Z,4.32
2019-02-27T07:27:17.895Z,4.31
2019-02-27T07:28:57.945Z,4.27
2019-02-27T07:30:36.542Z,4.31
2019-02-27T07:32:14.846Z,4.33
2019-02-27T07:34:05.354Z,4.42
2019-02-27T07:35:43.322Z,4.57
2019-02-27T07:37:18.510Z,4.71
2019-02-27T07:38:54.393Z,4.78
2019-02-27T07:40:30.827Z,4.92
2019-02-27T07:42:08.262Z,4.88
2019-02-27T07:43:55.493Z,5.16
2019-02-27T07:45:35.036Z,5.20
2019-02-27T07:47:12.149Z,5.12
2019-02-27T07:48:47.334Z,5.19
2019-02-27T07:50:28.847Z,5.13
2019-02-27T07:52:09.318Z,5.20
2019-02-27T07:53:51.361Z,5.27
2019-02-27T07:55:29.783Z,5.36
2019-02-27T07:57:09.908Z,5.52
2019-02-27T07:59:02.224Z,5.56
2019-02-27T08:00:38.668Z,5.62
2019-02-27T08:02:18.283Z,5.73
2019-02-27T08:04:08.341Z,5.94
2019-02-27T08:05:44.390Z,5.96
2019-02-27T08:07:36.767Z,6.33
2019-02-27T08:09:17.184Z,6.45
2019-02-27T08:10:53.807Z,6.72
2019-02-27T08:12:35.156Z,6.88
2019-02-27T08:14:15.713Z,6.83
2019-02-27T08:15:58.125Z,6.90
2019-02-27T08:17:47.180Z,7.18
2019-02-27T08:19:23.717Z,7.35
2019-02-27T08:21:00.338Z,7.57
2019-02-27T08:22:42.780Z,7.75
2019-02-27T08:24:17.788Z,7.88
2019-02-27T08:25:55.252Z,7.86
2019-02-27T08:27:30.295Z,8.02
2019-02-27T08:29:07.310Z,8.08
2019-02-27T08:30:47.316Z,8.19
2019-02-27T08:32:34.486Z,8.19
2019-02-27T08:34:14.916Z,8.40
2019-02-27T08:35:50.070Z,8.44
2019-02-27T08:37:25.783Z,8.47
2019-02-27T08:39:04.135Z,8.56
2019-02-27T08:40:39.719Z,8.68
2019-02-27T08:42:15.773Z,8.79
2019-02-27T08:43:51.012Z,8.72
2019-02-27T08:45:29.375Z,8.73
2019-02-27T08:47:10.213Z,8.85
2019-02-27T08:48:49.907Z,8.88
2019-02-27T08:50:23.911Z,8.99
2019-02-27T08:51:58.985Z,9.14
2019-02-27T08:53:38.232Z,9.30
2019-02-27T08:55:20.020Z,9.33
2019-02-27T08:57:00.006Z,9.49
2019-02-27T08:58:41.277Z,9.74
2019-02-27T09:00:24.061Z,10.15
2019-02-27T09:01:59.346Z,10.61
2019-02-27T09:03:36.355Z,11.21
2019-02-27T09:05:11.583Z,11.73
2019-02-27T09:07:02.322Z,12.23
2019-02-27T09:08:35.748Z,12.61
2019-02-27T09:10:13.561Z,13.06
2019-02-27T09:11:53.472Z,13.44
2019-02-27T09:13:35.175Z,13.88
2019-02-27T09:15:14.616Z,14.28
2019-02-27T09:16:54.871Z,14.29
2019-02-27T09:18:33.418Z,14.27
2019-02-27T09:20:19.234Z,14.64
2019-02-27T09:22:08.626Z,14.90
2019-02-27T09:23:48.391Z,15.19
2019-02-27T09:25:26.702Z,15.34
2019-02-27T09:27:08.144Z,15.53
2019-02-27T09:28:44.469Z,15.45
2019-02-27T09:30:28.874Z,15.65
2019-02-27T09:32:05.150Z,15.94
2019-02-27T09:33:40.773Z,16.19
2019-02-27T09:35:16.766Z,16.24
2019-02-27T09:36:52.084Z,16.34
2019-02-27T09:38:27.395Z,16.51
2019-02-27T09:40:05.656Z,16.40
2019-02-27T09:41:46.052Z,16.45
2019-02-27T09:43:36.514Z,16.28
2019-02-27T09:45:32.239Z,16.23
2019-02-27T09:47:07.379Z,16.62
2019-02-27T09:48:45.515Z,16.65
2019-02-27T09:50:41.510Z,16.52
2019-02-27T09:52:16.674Z,16.39
2019-02-27T09:53:54.071Z,16.47
2019-02-27T09:55:31.640Z,16.42
2019-02-27T09:57:07.346Z,16.53
2019-02-27T09:58:52.367Z,16.53
2019-02-27T10:00:50.133Z,16.58
2019-02-27T10:02:28.519Z,16.82
2019-02-27T10:04:10.283Z,17.04
2019-02-27T10:05:46.482Z,17.17
2019-02-27T10:07:23.473Z,17.09
2019-02-27T10:09:00.186Z,17.07
2019-02-27T10:10:35.346Z,17.36
2019-02-27T10:12:17.056Z,17.40
2019-02-27T10:13:58.714Z,17.42
2019-02-27T10:15:41.306Z,17.36
2019-02-27T10:17:18.742Z,17.44
2019-02-27T10:18:55.603Z,17.51
2019-02-27T10:20:36.874Z,17.62
2019-02-27T10:22:17.846Z,17.77
2019-02-27T10:24:04.693Z,17.67
2019-02-27T10:25:43.512Z,17.83
2019-02-27T10:27:28.705Z,17.49
2019-02-27T10:29:07.517Z,17.75
2019-02-27T10:30:42.728Z,18.11
2019-02-27T10:32:21.000Z,17.64
2019-02-27T10:34:08.526Z,17.80
2019-02-27T10:35:51.994Z,17.57
2019-02-27T10:37:33.160Z,17.69
2019-02-27T10:39:11.084Z,17.69
2019-02-27T10:40:59.646Z,17.71
2019-02-27T10:42:42.248Z,17.85
2019-02-27T10:44:17.924Z,17.94
2019-02-27T10:46:00.000Z,17.88
2019-02-27T10:47:36.669Z,18.19
2019-02-27T10:49:12.519Z,18.53
2019-02-27T10:50:50.366Z,18.46
2019-02-27T10:52:27.527Z,18.60
2019-02-27T10:54:05.459Z,18.58
2019-02-27T10:55:48.612Z,18.86
2019-02-27T10:57:24.627Z,18.91
2019-02-27T10:59:05.643Z,18.90
2019-02-27T11:00:46.198Z,18.51
2019-02-27T11:02:24.160Z,18.09
2019-02-27T11:04:03.149Z,17.77
2019-02-27T11:05:43.455Z,17.95
2019-02-27T11:07:19.006Z,18.10
2019-02-27T11:08:54.600Z,18.34
2019-02-27T11:10:33.432Z,18.52
2019-02-27T11:12:11.825Z,18.65
2019-02-27T11:13:51.684Z,18.54
2019-02-27T11:15:31.099Z,18.88
2019-02-27T11:17:10.934Z,18.77
2019-02-27T11:19:06.467Z,18.96
2019-02-27T11:20:51.636Z,18.95
2019-02-27T11:22:31.422Z,18.97
2019-02-27T11:24:14.473Z,19.29
2019-02-27T11:25:50.059Z,19.63
2019-02-27T11:27:26.481Z,19.31
2019-02-27T11:29:12.529Z,19.08
2019-02-27T11:30:54.953Z,19.73
2019-02-27T11:32:38.425Z,19.64
2019-02-27T11:34:20.540Z,19.23
2019-02-27T11:35:58.781Z,19.06
2019-02-27T11:37:35.933Z,18.84
2019-02-27T11:39:14.462Z,18.89
2019-02-27T11:40:53.433Z,19.49
2019-02-27T11:42:32.077Z,19.22
2019-02-27T11:44:09.165Z,19.35
2019-02-27T11:45:45.322Z,19.32
2019-02-27T11:47:25.628Z,19.26
2019-02-27T11:49:03.232Z,19.10
2019-02-27T11:50:38.867Z,18.90
2019-02-27T11:52:19.296Z,19.30
2019-02-27T11:54:04.379Z,18.96
2019-02-27T11:55:47.299Z,18.81
2019-02-27T11:57:38.636Z,18.60
2019-02-27T11:59:14.084Z,19.25
2019-02-27T12:00:55.569Z,19.33
2019-02-27T12:02:36.989Z,19.13
2019-02-27T12:04:09.432Z,19.46
2019-02-27T12:05:47.287Z,19.53
2019-02-27T12:07:23.822Z,19.57
2019-02-27T12:09:03.258Z,19.52
2019-02-27T12:10:47.612Z,19.60
2019-02-27T12:12:27.064Z,19.74
2019-02-27T12:14:06.529Z,20.01
2019-02-27T12:15:51.445Z,20.33
2019-02-27T12:17:29.943Z,20.33
2019-02-27T12:19:10.461Z,20.52
2019-02-27T12:20:53.245Z,20.04
2019-02-27T12:22:29.522Z,19.20
2019-02-27T12:24:07.054Z,19.11
2019-02-27T12:25:48.296Z,19.38
2019-02-27T12:27:48.522Z,19.66
2019-02-27T12:29:11.135Z,19.64
2019-02-27T12:30:57.851Z,19.76
2019-02-27T12:32:33.771Z,19.70
2019-02-27T12:34:11.833Z,19.48
2019-02-27T12:35:46.334Z,19.46
2019-02-27T12:37:28.398Z,19.57
2019-02-27T12:39:04.258Z,19.39
2019-02-27T12:40:40.617Z,19.41
2019-02-27T12:42:37.118Z,19.37
2019-02-27T12:44:13.747Z,19.12
2019-02-27T12:45:52.839Z,18.60
2019-02-27T12:47:40.714Z,18.55
2019-02-27T12:49:22.519Z,18.64
2019-02-27T12:51:03.703Z,18.69
2019-02-27T12:52:49.414Z,18.74
2019-02-27T12:54:32.160Z,18.79
2019-02-27T12:56:14.659Z,18.70
2019-02-27T12:57:53.752Z,18.66
2019-02-27T12:59:51.170Z,18.54
2019-02-27T13:01:34.663Z,18.29
2019-02-27T13:03:12.925Z,18.30
2019-02-27T13:04:52.478Z,18.20
2019-02-27T13:06:28.123Z,18.22
2019-02-27T13:08:05.670Z,18.13
2019-02-27T13:09:41.274Z,18.21
2019-02-27T13:11:16.542Z,18.12
2019-02-27T13:12:51.862Z,18.11
2019-02-27T13:14:33.358Z,18.04
2019-02-27T13:16:21.007Z,18.01
2019-02-27T13:18:07.436Z,17.86
2019-02-27T13:19:46.172Z,17.81
2019-02-27T13:21:43.544Z,17.81
2019-02-27T13:23:20.454Z,17.79
2019-02-27T13:24:56.885Z,17.56
2019-02-27T13:26:36.558Z,17.49
2019-02-27T13:28:15.738Z,17.46
2019-02-27T13:30:08.765Z,17.49
2019-02-27T13:31:52.424Z,17.46
2019-02-27T13:33:38.926Z,17.43
2019-02-27T13:35:12.786Z,17.30
2019-02-27T13:36:48.827Z,17.36
2019-02-27T13:38:25.167Z,17.28
2019-02-27T13:40:01.353Z,17.38
2019-02-27T13:41:42.374Z,17.32
2019-02-27T13:43:40.623Z,17.30
2019-02-27T13:45:26.062Z,17.27
2019-02-27T13:47:19.022Z,17.26
2019-02-27T13:48:59.039Z,17.29
2019-02-27T13:50:37.901Z,17.20
2019-02-27T13:52:17.447Z,17.18
2019-02-27T13:54:00.654Z,17.22
2019-02-27T13:55:50.565Z,17.13
2019-02-27T13:57:48.369Z,17.18
2019-02-27T13:59:25.725Z,17.38
2019-02-27T14:01:08.105Z,17.39
2019-02-27T14:02:59.392Z,17.29
2019-02-27T14:04:37.054Z,17.28
2019-02-27T14:06:15.139Z,17.31
2019-02-27T14:07:50.356Z,17.33
2019-02-27T14:09:30.436Z,17.28
2019-02-27T14:11:05.844Z,17.33
2019-02-27T14:12:47.662Z,17.35
2019-02-27T14:14:27.145Z,17.34
2019-02-27T14:16:07.443Z,17.40
2019-02-27T14:17:45.484Z,17.43
2019-02-27T14:19:21.415Z,17.40
2019-02-27T14:21:01.761Z,17.40
2019-02-27T14:22:45.493Z,17.41
2019-02-27T14:24:25.001Z,17.46
2019-02-27T14:26:06.742Z,17.58
2019-02-27T14:27:47.425Z,17.60
2019-02-27T14:29:30.883Z,17.62
2019-02-27T14:31:09.517Z,17.62
2019-02-27T14:32:53.403Z,17.61
2019-02-27T14:34:34.191Z,17.60
2019-02-27T14:36:13.701Z,17.67
2019-02-27T14:37:51.188Z,17.71
2019-02-27T14:39:29.630Z,17.68
2019-02-27T14:41:03.215Z,17.66
2019-02-27T14:42:46.314Z,17.72
2019-02-27T14:44:21.343Z,17.74
2019-02-27T14:46:06.709Z,17.75
2019-02-27T14:47:43.307Z,17.71
2019-02-27T14:49:20.793Z,17.68
2019-02-27T14:50:57.695Z,17.68
2019-02-27T14:52:38.289Z,17.70
2019-02-27T14:54:15.395Z,17.68
2019-02-27T14:55:50.615Z,17.60
2019-02-27T14:57:29.817Z,17.59
2019-02-27T14:59:10.375Z,17.58
2019-02-27T15:01:07.338Z,17.53
2019-02-27T15:02:44.348Z,17.55
2019-02-27T15:04:24.692Z,17.55
2019-02-27T15:06:02.663Z,17.57
2019-02-27T15:07:46.183Z,17.48
2019-02-27T15:09:35.961Z,17.55
2019-02-27T15:11:14.881Z,17.57
2019-02-27T15:12:56.856Z,17.52
2019-02-27T15:14:40.452Z,17.57
2019-02-27T15:16:16.309Z,17.55
2019-02-27T15:18:00.981Z,17.57
2019-02-27T15:19:37.465Z,17.55
2019-02-27T15:21:17.422Z,17.55
2019-02-27T15:22:56.416Z,17.52
2019-02-27T15:24:34.943Z,17.55
2019-02-27T15:26:17.111Z,17.52
2019-02-27T15:28:03.732Z,17.43
2019-02-27T15:29:43.022Z,17.46
2019-02-27T15:31:21.298Z,17.44
2019-02-27T15:33:05.381Z,17.33
2019-02-27T15:34:42.729Z,17.31
2019-02-27T15:36:20.274Z,17.34
2019-02-27T15:38:01.958Z,17.38
2019-02-27T15:39:38.725Z,17.40
2019-02-27T15:41:22.180Z,17.44
2019-02-27T15:42:57.429Z,17.41
2019-02-27T15:44:36.163Z,17.46
2019-02-27T15:46:11.412Z,17.44
2019-02-27T15:47:46.744Z,17.38
2019-02-27T15:49:24.061Z,17.39
2019-02-27T15:51:08.684Z,17.38
2019-02-27T15:52:53.645Z,17.41
2019-02-27T15:54:33.612Z,17.39
2019-02-27T15:56:14.481Z,17.35
2019-02-27T15:57:54.198Z,17.34
2019-02-27T15:59:44.836Z,17.35
2019-02-27T16:01:29.004Z,17.30
2019-02-27T16:03:10.935Z,17.30
2019-02-27T16:04:55.415Z,17.25
2019-02-27T16:06:37.073Z,17.25
2019-02-27T16:08:15.361Z,17.23
2019-02-27T16:10:15.225Z,17.22
2019-02-27T16:11:54.309Z,17.21
2019-02-27T16:13:34.637Z,17.26
2019-02-27T16:15:10.728Z,17.24
2019-02-27T16:16:57.536Z,17.22
2019-02-27T16:18:33.869Z,17.21
2019-02-27T16:20:17.348Z,17.15
2019-02-27T16:21:57.238Z,17.18
2019-02-27T16:23:31.545Z,17.11
2019-02-27T16:25:08.289Z,17.08
2019-02-27T16:26:58.003Z,17.05
2019-02-27T16:28:33.188Z,17.01
2019-02-27T16:30:10.396Z,16.94
2019-02-27T16:31:47.032Z,16.77
2019-02-27T16:33:25.121Z,16.69
2019-02-27T16:35:07.909Z,16.61
2019-02-27T16:36:46.869Z,16.47
2019-02-27T16:38:31.510Z,16.33
2019-02-27T16:40:07.967Z,16.25
2019-02-27T16:41:53.422Z,16.11
2019-02-27T16:43:31.235Z,15.95
2019-02-27T16:47:15.616Z,15.56
2019-02-27T16:49:00.145Z,15.34
2019-02-27T16:50:38.356Z,15.14
2019-02-27T16:52:13.662Z,14.85
2019-02-27T16:53:52.352Z,14.66
2019-02-27T16:55:36.002Z,14.33
2019-02-27T16:57:08.122Z,14.18
2019-02-27T16:58:43.321Z,13.97
2019-02-27T17:00:21.338Z,13.72
2019-02-27T17:02:06.462Z,13.54
2019-02-27T17:05:55.470Z,12.98
2019-02-27T17:07:35.289Z,12.66
2019-02-27T17:09:14.453Z,12.46
2019-02-27T17:11:02.525Z,12.31
2019-02-27T17:12:46.152Z,12.21
2019-02-27T17:14:24.643Z,12.01
2019-02-27T17:16:03.421Z,11.80
2019-02-27T17:17:38.545Z,11.64
2019-02-27T17:19:16.585Z,11.55
2019-02-27T17:20:52.826Z,11.46
2019-02-27T17:22:33.917Z,11.23
2019-02-27T17:24:10.131Z,11.09
2019-02-27T17:25:45.759Z,10.81
2019-02-27T17:27:23.960Z,10.72
2019-02-27T17:29:03.695Z,10.64
2019-02-27T17:30:50.008Z,10.48
2019-02-27T17:32:57.042Z,10.50
2019-02-27T17:34:35.503Z,10.34
2019-02-27T17:36:15.302Z,10.08
2019-02-27T17:37:50.784Z,10.05
2019-02-27T17:39:30.588Z,10.00
2019-02-27T17:41:08.941Z,10.03
2019-02-27T17:42:43.740Z,9.83
2019-02-27T17:44:37.769Z,9.78
2019-02-27T17:46:14.268Z,9.73
2019-02-27T17:47:55.807Z,9.84
2019-02-27T17:49:35.572Z,9.73
2019-02-27T17:51:11.315Z,9.76
2019-02-27T17:52:50.447Z,9.53
2019-02-27T17:54:31.306Z,9.45
2019-02-27T17:56:15.228Z,9.40
2019-02-27T17:57:50.183Z,9.18
2019-02-27T17:59:28.294Z,9.18
2019-02-27T18:01:10.710Z,9.18
2019-02-27T18:02:51.988Z,9.10
2019-02-27T18:04:50.756Z,9.18
2019-02-27T18:06:27.488Z,9.04
2019-02-27T18:08:08.652Z,8.95
2019-02-27T18:09:58.298Z,8.78
2019-02-27T18:11:37.689Z,8.75
2019-02-27T18:13:20.709Z,8.61
2019-02-27T18:15:10.605Z,8.54
2019-02-27T18:16:50.941Z,8.35
2019-02-27T18:18:30.626Z,8.35
2019-02-27T18:20:11.633Z,8.31
2019-02-27T18:21:49.949Z,8.30
2019-02-27T18:23:25.520Z,8.26
2019-02-27T18:25:04.723Z,8.44
2019-02-27T18:26:41.234Z,8.52
2019-02-27T18:28:18.783Z,8.55
2019-02-27T18:29:56.894Z,8.39
2019-02-27T18:31:35.897Z,8.23
2019-02-27T18:33:17.400Z,8.09
2019-02-27T18:34:55.177Z,7.91
2019-02-27T18:36:57.537Z,7.98
2019-02-27T18:38:43.215Z,7.89
2019-02-27T18:40:20.352Z,7.79
2019-02-27T18:42:02.744Z,7.71
2019-02-27T18:43:40.919Z,7.86
2019-02-27T18:45:27.710Z,7.80
2019-02-27T18:47:06.782Z,7.73
2019-02-27T18:48:48.220Z,7.58
2019-02-27T18:50:31.447Z,7.62
2019-02-27T18:52:21.604Z,7.61
2019-02-27T18:54:02.579Z,7.51
2019-02-27T18:55:39.774Z,7.54
2019-02-27T18:57:18.806Z,7.45
2019-02-27T18:58:57.429Z,7.45
2019-02-27T19:00:33.422Z,7.48
2019-02-27T19:02:12.719Z,7.59
2019-02-27T19:03:49.388Z,7.50
2019-02-27T19:05:27.621Z,7.36
2019-02-27T19:07:06.383Z,7.16
2019-02-27T19:08:44.999Z,7.04
2019-02-27T19:10:30.434Z,7.00
2019-02-27T19:12:12.282Z,7.15
2019-02-27T19:13:50.723Z,7.14
2019-02-27T19:15:28.322Z,7.04
2019-02-27T19:17:09.278Z,7.12
2019-02-27T19:18:50.784Z,7.16
2019-02-27T19:20:29.394Z,7.17
2019-02-27T19:22:17.846Z,7.22
2019-02-27T19:24:04.320Z,7.27
2019-02-27T19:25:41.093Z,7.32
2019-02-27T19:27:19.763Z,7.37
2019-02-27T19:29:00.311Z,7.11
2019-02-27T19:30:41.866Z,7.09
2019-02-27T19:32:17.728Z,7.29
2019-02-27T19:33:55.914Z,7.34
2019-02-27T19:35:32.196Z,7.33
2019-02-27T19:37:11.834Z,7.40
2019-02-27T19:38:52.987Z,7.33
2019-02-27T19:40:30.370Z,7.15
2019-02-27T19:42:10.346Z,6.97
2019-02-27T19:43:45.642Z,6.89
2019-02-27T19:45:26.205Z,6.70
2019-02-27T19:47:01.722Z,6.51
2019-02-27T19:48:43.682Z,6.46
2019-02-27T19:50:23.065Z,6.58
2019-02-27T19:51:58.383Z,6.74
2019-02-27T19:53:39.349Z,6.92
2019-02-27T19:55:11.907Z,6.99
2019-02-27T19:56:49.889Z,7.07
2019-02-27T19:58:32.105Z,7.11
2019-02-27T20:00:14.167Z,6.84
2019-02-27T20:01:49.672Z,6.85
2019-02-27T20:03:34.924Z,6.77
2019-02-27T20:05:09.577Z,6.59
2019-02-27T20:06:44.845Z,6.38
2019-02-27T20:08:35.229Z,6.29
2019-02-27T20:10:15.198Z,6.49
2019-02-27T20:11:50.423Z,6.58
2019-02-27T20:13:29.669Z,6.32
2019-02-27T20:15:10.984Z,6.29
2019-02-27T20:16:56.074Z,6.46
2019-02-27T20:18:31.563Z,6.69
2019-02-27T20:20:20.584Z,6.73
2019-02-27T20:21:59.691Z,6.75
2019-02-27T20:23:36.737Z,6.65
2019-02-27T20:25:18.003Z,6.78
2019-02-27T20:26:59.216Z,6.87
2019-02-27T20:28:53.842Z,6.89
2019-02-27T20:32:29.308Z,6.68
2019-02-27T20:34:13.889Z,6.56
2019-02-27T20:35:52.275Z,6.64
2019-02-27T20:37:37.125Z,6.70
2019-02-27T20:39:16.705Z,6.75
2019-02-27T20:40:53.304Z,6.99
2019-02-27T20:43:11.272Z,7.02
2019-02-27T20:44:49.628Z,6.79
2019-02-27T20:46:28.177Z,6.66
2019-02-27T20:48:14.272Z,6.45
2019-02-27T20:49:52.704Z,6.64
2019-02-27T20:51:39.832Z,6.87
2019-02-27T20:53:28.915Z,6.91
2019-02-27T20:55:14.516Z,6.93
2019-02-27T20:56:55.503Z,6.81
2019-02-27T20:58:29.268Z,6.81
2019-02-27T21:00:16.416Z,6.79
2019-02-27T21:01:57.742Z,6.81
2019-02-27T21:03:35.475Z,6.72
2019-02-27T21:05:13.977Z,6.91
2019-02-27T21:06:58.134Z,7.05
2019-02-27T21:08:36.152Z,7.16
2019-02-27T21:10:19.965Z,7.37
2019-02-27T21:11:56.095Z,7.50
2019-02-27T21:13:31.930Z,7.68
2019-02-27T21:15:15.210Z,7.57
2019-02-27T21:16:51.792Z,7.76
2019-02-27T21:18:29.121Z,7.68
2019-02-27T21:20:05.020Z,7.75
2019-02-27T21:21:46.580Z,7.64
2019-02-27T21:23:21.895Z,7.75
2019-02-27T21:25:00.252Z,7.78
2019-02-27T21:26:46.025Z,7.85
2019-02-27T21:28:27.361Z,7.84
2019-02-27T21:30:10.695Z,7.75
2019-02-27T21:31:49.116Z,7.74
2019-02-27T21:33:27.282Z,7.79
2019-02-27T21:35:03.312Z,7.86
2019-02-27T21:36:48.673Z,7.80
2019-02-27T21:38:25.951Z,7.77
2019-02-27T21:40:04.611Z,7.70
2019-02-27T21:41:45.331Z,7.81
2019-02-27T21:43:28.071Z,7.82
2019-02-27T21:45:03.611Z,7.80
2019-02-27T21:46:57.754Z,7.91
2019-02-27T21:48:37.175Z,7.62
2019-02-27T21:50:19.162Z,7.48
2019-02-27T21:51:55.765Z,7.58
2019-02-27T21:53:33.205Z,7.51
2019-02-27T21:55:12.998Z,7.42
2019-02-27T21:56:56.227Z,7.45
2019-02-27T21:58:37.411Z,7.45
2019-02-27T22:00:19.099Z,7.30
2019-02-27T22:01:56.316Z,7.38
2019-02-27T22:03:38.182Z,7.41
2019-02-27T22:05:21.242Z,7.27
2019-02-27T22:07:23.923Z,7.24
2019-02-27T22:09:06.488Z,7.27
2019-02-27T22:10:44.441Z,7.09
2019-02-27T22:12:22.583Z,7.12
2019-02-27T22:13:59.517Z,6.98
2019-02-27T22:15:41.214Z,6.94
2019-02-27T22:17:30.021Z,6.88
2019-02-27T22:19:05.726Z,6.89
2019-02-27T22:20:44.155Z,6.78
2019-02-27T22:22:19.448Z,6.66
2019-02-27T22:24:01.856Z,6.58
2019-02-27T22:25:41.278Z,6.64
2019-02-27T22:27:16.568Z,6.55